Angwin, CA

2:53 AM PDT on October 26, 2014 (GMT -0700)
Edgewood | Change Station
CLOSE
Current Station
Personal Weather Station
Location: Angwin, CA
Elevation: 1766 ft
Nearby Weather Stations

Elev 1766 ft 38.57 °N, 122.44 °W | Updated 5 seconds ago

Partly Cloudy
Partly Cloudy
49.0 °F
Feels Like 49 °F
N
1.0
Wind Variable Wind from WSW
Gusts 2.0 mph

Today
High -- | Low -- °F
--% Chance of Precip.
Yesterday
High -- | Low -- °F
Precip. -- in
7:30 AM 6:16 PM
Waxing Crescent, 7% visible
Pressure 30.14 in
Visibility 7.0 miles
Clouds Clear
Windchill 49 °F
Dew Point 40 °F
Humidity 72%
Rainfall 0.00 in
Snow Depth Not available.
UV 0 out of 12
Pollen 2.40 out of 12
Ozone Good
PM2.5 Good
Flu Activity Sporadic
METAR KSTS 260853Z AUTO 34003KT 7SM CLR 11/11 A3016 RMK AO2 SLP206 T01060106 51010

More Conditions Fewer Conditions

Pressure 30.14 in
Visibility 7.0 miles
Clouds Clear
Windchill 49 °F
Dew Point 40 °F
Humidity 72%
Rainfall 0.00 in
Snow Depth Not available.
UV 0 out of 12
Pollen 2.40 out of 12
Ozone Good
PM2.5 Good
Flu Activity Sporadic
METAR KSTS 260853Z AUTO 34003KT 7SM CLR 11/11 A3016 RMK AO2 SLP206 T01060106 51010

More Conditions Fewer Conditions

10-Day Weather Forecast

Almanac

Astronomy

Oct. 26, 2014 Rise Set
Actual Time 7:30 AM PDT 6:16 PM PDT
Civil Twilight 7:02 AM PDT 6:43 PM PDT
Nautical Twilight 6:31 AM PDT 7:14 PM PDT
Astronomical Twilight 6:01 AM PDT 7:45 PM PDT
Moon 10:12 AM PDT 8:34 PM PDT
Length of Visible Light 11h 40m
Length of Day
10h 46m
Tomorrow will be 2m 17s shorter.
Waxing Crescent, 7% of the Moon is Illuminated
Today
Waxing Crescent
Oct 30
First Quarter
Nov 6
Full
Nov 14
Last Quarter
Nov 22
New

Today's Extremes

State Highs State Lows

Community

WunderPhotos

Upload Photos

1,765,132 photos uploaded!

Nearby

Air Quality

  Air Quality AQ Index Pollutant
Yesterday Good
PM2.5
Yesterday Good
OZONE
Current Good
PM2.5
Current Good
OZONE
Sunday Moderate
PM2.5
Monday Moderate
PM2.5
Tuesday Moderate
PM2.5
Wednesday Moderate
PM2.5

Snow Depth

Station Depth Elevation
Ward Creek #3 1 in 6750 ft
Squaw Valley 1 in 8200 ft
Rubicon #2 2 in 7500 ft
Independence Lake 3 in 8450 ft
Echo Peak 4 in 7800 ft

Earthquake Activity

City Distance Mag. Time & Date
Antioch, California 49 miles 2.7 6:42 AM PDT
2014-10-25
Deer Park, California 3 miles 2.8 6:40 AM PDT
2014-10-25
Minimum magnitude displayed is 2.5.

Coastal Water Temperatures

Place Temperature
No Stations Reporting

Nearby Weather Stations